createdAt,value
2022-08-11T00:01:15.693Z,2.15
2022-08-11T00:03:48.967Z,1.90
2022-08-11T00:06:27.344Z,2.00
2022-08-11T00:08:56.697Z,2.20
2022-08-11T00:11:36.259Z,2.10
2022-08-11T00:14:06.693Z,2.15
2022-08-11T00:16:35.372Z,2.08
2022-08-11T00:19:04.927Z,2.58
2022-08-11T00:22:04.707Z,2.08
2022-08-11T00:24:53.311Z,2.00
2022-08-11T00:27:32.221Z,2.22
2022-08-11T00:30:02.057Z,2.15
2022-08-11T00:32:31.721Z,2.03
2022-08-11T00:35:53.663Z,2.03
2022-08-11T00:37:57.109Z,1.80
2022-08-11T00:40:34.638Z,2.38
2022-08-11T00:43:20.757Z,2.00
2022-08-11T00:46:12.315Z,2.47
2022-08-11T00:48:50.243Z,2.10
2022-08-11T00:52:04.444Z,2.20
2022-08-11T00:54:59.745Z,2.10
2022-08-11T00:58:01.877Z,2.10
2022-08-11T01:00:41.977Z,2.22
2022-08-11T01:03:26.353Z,2.20
2022-08-11T01:06:12.996Z,2.00
2022-08-11T01:09:17.883Z,2.15
2022-08-11T01:12:22.221Z,2.20
2022-08-11T01:15:40.659Z,2.30
2022-08-11T01:18:32.370Z,2.38
2022-08-11T01:21:17.780Z,2.15
2022-08-11T01:24:39.811Z,2.13
2022-08-11T01:27:25.477Z,2.30
2022-08-11T01:30:22.061Z,2.30
2022-08-11T01:33:29.932Z,2.35
2022-08-11T01:36:31.367Z,1.92
2022-08-11T01:39:24.860Z,2.20
2022-08-11T01:42:46.850Z,2.38
2022-08-11T01:45:29.354Z,2.20
2022-08-11T01:48:09.072Z,2.33
2022-08-11T01:51:04.038Z,2.35
2022-08-11T01:53:46.281Z,2.53
2022-08-11T01:56:29.565Z,2.10
2022-08-11T01:59:07.361Z,2.15
2022-08-11T02:02:02.466Z,2.20
2022-08-11T02:04:36.112Z,2.70
2022-08-11T02:07:14.982Z,2.58
2022-08-11T02:10:35.139Z,2.35
2022-08-11T02:13:13.367Z,2.42
2022-08-11T02:15:48.251Z,2.70
2022-08-11T02:18:45.697Z,2.28
2022-08-11T02:21:38.111Z,2.13
2022-08-11T02:24:15.554Z,2.90
2022-08-11T02:26:51.685Z,2.85
2022-08-11T02:29:27.028Z,2.00
2022-08-11T02:32:29.772Z,2.40
2022-08-11T02:35:15.361Z,2.28
2022-08-11T02:37:53.355Z,2.30
2022-08-11T02:40:35.480Z,2.45
2022-08-11T02:43:23.607Z,2.55
2022-08-11T02:46:05.852Z,2.38
2022-08-11T02:49:05.580Z,2.40
2022-08-11T02:51:41.929Z,2.70
2022-08-11T02:54:20.926Z,2.65
2022-08-11T02:56:55.995Z,2.65
2022-08-11T02:59:54.321Z,2.60
2022-08-11T03:02:34.691Z,2.53
2022-08-11T03:05:14.492Z,2.70
2022-08-11T03:07:57.220Z,2.47
2022-08-11T03:10:34.326Z,2.63
2022-08-11T03:13:30.147Z,2.10
2022-08-11T03:16:40.376Z,2.70
2022-08-11T03:19:17.085Z,2.90
2022-08-11T03:22:02.853Z,2.53
2022-08-11T03:24:45.628Z,2.53
2022-08-11T03:27:30.137Z,2.42
2022-08-11T03:30:07.926Z,2.55
2022-08-11T03:33:07.354Z,2.60
2022-08-11T03:35:42.654Z,2.63
2022-08-11T03:38:15.833Z,2.97
2022-08-11T03:42:02.086Z,2.40
2022-08-11T03:44:20.383Z,2.30
2022-08-11T03:47:09.959Z,2.50
2022-08-11T03:49:54.837Z,2.50
2022-08-11T03:52:34.436Z,2.30
2022-08-11T03:55:15.678Z,2.45
2022-08-11T03:58:32.294Z,2.10
2022-08-11T04:01:39.500Z,2.60
2022-08-11T04:04:25.758Z,2.28
2022-08-11T04:07:34.675Z,2.38
2022-08-11T04:10:43.407Z,2.88
2022-08-11T04:13:41.420Z,2.70
2022-08-11T04:16:24.788Z,2.58
2022-08-11T04:19:42.992Z,2.45
2022-08-11T04:23:03.935Z,2.33
2022-08-11T04:26:01.224Z,2.58
2022-08-11T04:29:09.598Z,2.38
2022-08-11T04:31:52.042Z,2.50
2022-08-11T04:34:46.123Z,3.00
2022-08-11T04:37:34.645Z,2.65
2022-08-11T04:40:35.200Z,2.42
2022-08-11T04:44:05.730Z,2.22
2022-08-11T04:47:09.216Z,2.60
2022-08-11T04:50:16.917Z,3.08
2022-08-11T04:53:34.068Z,2.72
2022-08-11T04:56:33.481Z,2.42
2022-08-11T04:59:59.182Z,2.30
2022-08-11T05:03:04.646Z,2.28
2022-08-11T05:05:56.804Z,2.72
2022-08-11T05:09:07.056Z,2.38
2022-08-11T05:11:57.942Z,2.70
2022-08-11T05:14:57.958Z,2.53
2022-08-11T05:17:54.659Z,2.25
2022-08-11T05:20:44.508Z,2.33
2022-08-11T05:23:32.041Z,2.60
2022-08-11T05:26:47.885Z,2.83
2022-08-11T05:29:45.126Z,2.50
2022-08-11T05:32:35.418Z,2.42
2022-08-11T05:35:08.604Z,2.50
2022-08-11T05:37:58.593Z,2.42
2022-08-11T05:40:51.278Z,2.83
2022-08-11T05:44:20.103Z,2.35
2022-08-11T05:46:58.345Z,2.40
2022-08-11T05:49:49.528Z,2.38
2022-08-11T05:52:41.842Z,2.13
2022-08-11T05:55:29.375Z,2.80
2022-08-11T05:58:00.364Z,2.60
2022-08-11T06:00:30.052Z,2.20
2022-08-11T06:03:07.726Z,2.88
2022-08-11T06:05:43.503Z,2.58
2022-08-11T06:08:14.728Z,2.65
2022-08-11T06:10:46.028Z,2.63
2022-08-11T06:13:18.311Z,2.60
2022-08-11T06:15:49.176Z,2.78
2022-08-11T06:18:20.962Z,2.53
2022-08-11T06:20:51.714Z,2.38
2022-08-11T06:23:23.684Z,2.55
2022-08-11T06:25:56.211Z,2.45
2022-08-11T06:28:33.746Z,2.70
2022-08-11T06:31:04.995Z,2.50
2022-08-11T06:33:43.945Z,2.78
2022-08-11T06:36:22.799Z,2.67
2022-08-11T06:39:03.966Z,2.38
2022-08-11T06:41:41.784Z,2.72
2022-08-11T06:44:17.912Z,2.45
2022-08-11T06:46:51.016Z,2.60
2022-08-11T06:49:40.962Z,2.75
2022-08-11T06:52:35.099Z,2.50
2022-08-11T06:55:12.604Z,2.40
2022-08-11T06:58:16.163Z,2.35
2022-08-11T07:00:47.226Z,2.75
2022-08-11T07:03:20.285Z,2.67
2022-08-11T07:05:55.052Z,2.50
2022-08-11T07:09:23.391Z,2.47
2022-08-11T07:12:31.620Z,2.38
2022-08-11T07:15:22.895Z,2.45
2022-08-11T07:18:13.035Z,2.80
2022-08-11T07:21:02.389Z,2.67
2022-08-11T07:23:54.310Z,2.80
2022-08-11T07:26:44.504Z,2.53
2022-08-11T07:29:16.633Z,2.63
2022-08-11T07:31:50.531Z,2.53
2022-08-11T07:34:23.766Z,2.67
2022-08-11T07:36:55.401Z,2.70
2022-08-11T07:39:27.600Z,2.67
2022-08-11T07:41:59.394Z,2.30
2022-08-11T07:44:34.685Z,2.55
2022-08-11T07:47:33.376Z,3.13
2022-08-11T07:50:20.193Z,2.40
2022-08-11T07:52:48.667Z,2.72
2022-08-11T07:55:51.815Z,2.38
2022-08-11T07:58:45.245Z,2.10
2022-08-11T08:01:40.899Z,1.80
2022-08-11T08:04:29.521Z,2.42
2022-08-11T08:07:17.559Z,2.40
2022-08-11T08:10:04.180Z,2.40
2022-08-11T08:12:54.013Z,2.38
2022-08-11T08:15:41.047Z,2.60
2022-08-11T08:18:26.259Z,2.45
2022-08-11T08:21:11.996Z,2.47
2022-08-11T08:23:43.124Z,2.50
2022-08-11T08:26:28.525Z,2.83
2022-08-11T08:29:16.020Z,2.25
2022-08-11T08:31:47.195Z,2.70
2022-08-11T08:34:17.840Z,2.10
2022-08-11T08:36:48.291Z,2.20
2022-08-11T08:39:22.126Z,1.90
2022-08-11T08:41:55.468Z,2.05
2022-08-11T08:44:38.407Z,2.40
2022-08-11T08:47:13.677Z,2.10
2022-08-11T08:49:49.895Z,2.25
2022-08-11T08:52:32.082Z,2.40
2022-08-11T08:55:07.896Z,2.40
2022-08-11T08:57:38.958Z,3.10
2022-08-11T09:00:13.800Z,2.28
2022-08-11T09:02:46.358Z,2.00
2022-08-11T09:05:19.191Z,2.15
2022-08-11T09:07:51.773Z,2.25
2022-08-11T09:10:21.623Z,2.00
2022-08-11T09:12:51.935Z,2.00
2022-08-11T09:15:24.060Z,2.05
2022-08-11T09:17:56.760Z,2.20
2022-08-11T09:20:29.193Z,1.95
2022-08-11T09:26:31.035Z,2.05
2022-08-11T09:29:01.881Z,1.90
2022-08-11T09:31:39.346Z,2.40
2022-08-11T09:34:11.349Z,1.98
2022-08-11T09:36:58.984Z,1.70
2022-08-11T09:39:47.000Z,2.03
2022-08-11T09:42:23.390Z,1.90
2022-08-11T09:44:53.818Z,1.90
2022-08-11T09:47:28.008Z,1.90
2022-08-11T09:50:01.334Z,2.00
2022-08-11T09:52:36.260Z,2.53
2022-08-11T09:55:11.054Z,2.20
2022-08-11T09:57:59.525Z,1.70
2022-08-11T10:00:32.225Z,1.75
2022-08-11T10:03:07.498Z,1.90
2022-08-11T10:05:53.511Z,1.95
2022-08-11T10:08:28.307Z,1.80
2022-08-11T10:10:57.776Z,2.22
2022-08-11T10:14:31.915Z,1.77
2022-08-11T10:16:26.376Z,1.65
2022-08-11T10:18:58.472Z,1.88
2022-08-11T10:21:30.349Z,1.73
2022-08-11T10:24:19.029Z,2.00
2022-08-11T10:27:00.240Z,2.10
2022-08-11T10:29:51.157Z,1.80
2022-08-11T10:32:58.084Z,2.17
2022-08-11T10:35:32.037Z,1.60
2022-08-11T10:38:08.357Z,1.50
2022-08-11T10:40:41.300Z,1.92
2022-08-11T10:43:14.324Z,1.88
2022-08-11T10:46:25.721Z,1.85
2022-08-11T10:49:00.042Z,1.75
2022-08-11T10:51:50.773Z,1.90
2022-08-11T10:54:39.745Z,1.58
2022-08-11T10:57:27.806Z,1.80
2022-08-11T10:59:57.545Z,1.95
2022-08-11T11:02:28.651Z,1.70
2022-08-11T11:05:04.648Z,1.77
2022-08-11T11:07:44.407Z,1.50
2022-08-11T11:10:13.439Z,1.70
2022-08-11T11:13:03.742Z,1.55
2022-08-11T11:15:53.121Z,1.75
2022-08-11T11:18:25.721Z,1.60
2022-08-11T11:20:58.335Z,1.60
2022-08-11T11:23:34.223Z,1.50
2022-08-11T11:26:33.036Z,1.77
2022-08-11T11:29:27.622Z,1.85
2022-08-11T11:32:13.100Z,1.98
2022-08-11T11:34:59.783Z,1.60
2022-08-11T11:37:33.371Z,1.75
2022-08-11T11:40:11.680Z,1.60
2022-08-11T11:42:42.846Z,1.60
2022-08-11T11:45:22.638Z,1.65
2022-08-11T11:47:56.118Z,1.40
2022-08-11T11:50:26.282Z,1.77
2022-08-11T11:53:03.345Z,1.30
2022-08-11T11:55:34.479Z,1.40
2022-08-11T11:58:22.219Z,1.42
2022-08-11T12:01:09.865Z,1.42
2022-08-11T12:03:39.513Z,1.60
2022-08-11T12:06:12.643Z,1.40
2022-08-11T12:08:42.157Z,1.60
2022-08-11T12:11:32.089Z,1.63
2022-08-11T12:14:04.725Z,1.83
2022-08-11T12:16:42.782Z,1.60
2022-08-11T12:19:14.486Z,1.52
2022-08-11T12:21:59.171Z,1.83
2022-08-11T12:24:48.403Z,1.40
2022-08-11T12:27:25.420Z,1.50
2022-08-11T12:29:57.733Z,1.40
2022-08-11T12:32:30.946Z,1.42
2022-08-11T12:34:59.875Z,1.50
2022-08-11T12:37:33.256Z,1.48
2022-08-11T12:40:50.140Z,1.50
2022-08-11T12:43:38.338Z,1.83
2022-08-11T12:46:11.915Z,1.52
2022-08-11T12:49:04.323Z,1.60
2022-08-11T12:52:12.068Z,1.42
2022-08-11T12:54:51.765Z,1.38
2022-08-11T12:57:47.437Z,1.25
2022-08-11T13:00:36.601Z,1.33
2022-08-11T13:03:26.295Z,1.40
2022-08-11T13:05:57.342Z,1.50
2022-08-11T13:08:29.535Z,1.42
2022-08-11T13:11:19.221Z,1.27
2022-08-11T13:13:54.031Z,1.30
2022-08-11T13:16:30.239Z,1.60
2022-08-11T13:19:01.725Z,1.40
2022-08-11T13:21:31.188Z,1.30
2022-08-11T13:24:03.540Z,1.23
2022-08-11T13:26:43.676Z,1.33
2022-08-11T13:29:20.613Z,1.58
2022-08-11T13:31:51.799Z,1.30
2022-08-11T13:34:21.671Z,1.30
2022-08-11T13:36:52.927Z,1.40
2022-08-11T13:39:24.429Z,1.30
2022-08-11T13:41:57.123Z,1.25
2022-08-11T13:44:28.718Z,1.20
2022-08-11T13:47:02.989Z,1.40
2022-08-11T13:49:32.668Z,1.23
2022-08-11T13:52:03.018Z,1.50
2022-08-11T13:54:35.653Z,1.30
2022-08-11T13:57:09.491Z,1.38
2022-08-11T14:00:09.654Z,0.98
2022-08-11T14:02:46.861Z,1.20
2022-08-11T14:05:18.043Z,1.27
2022-08-11T14:07:51.885Z,1.50
2022-08-11T14:10:23.040Z,1.45
2022-08-11T14:13:16.086Z,1.20
2022-08-11T14:15:47.288Z,1.15
2022-08-11T14:18:22.797Z,1.23
2022-08-11T14:21:13.288Z,1.25
2022-08-11T14:23:44.988Z,1.10
2022-08-11T14:26:28.120Z,1.27
2022-08-11T14:29:02.589Z,1.42
2022-08-11T14:31:33.019Z,1.25
2022-08-11T14:34:05.708Z,1.30
2022-08-11T14:36:37.018Z,0.98
2022-08-11T14:39:12.004Z,1.33
2022-08-11T14:42:11.754Z,1.38
2022-08-11T14:45:05.333Z,1.10
2022-08-11T14:47:36.571Z,1.35
2022-08-11T14:50:12.558Z,1.27
2022-08-11T14:52:46.924Z,1.48
2022-08-11T14:55:34.311Z,1.23
2022-08-11T14:58:04.130Z,1.40
2022-08-11T15:00:34.762Z,1.50
2022-08-11T15:03:11.025Z,1.50
2022-08-11T15:05:57.202Z,1.42
2022-08-11T15:08:48.039Z,1.40
2022-08-11T15:11:36.363Z,1.45
2022-08-11T15:14:07.419Z,1.20
2022-08-11T15:16:55.232Z,1.52
2022-08-11T15:19:40.381Z,1.48
2022-08-11T15:22:30.002Z,1.05
2022-08-11T15:24:59.787Z,1.33
2022-08-11T15:27:48.282Z,1.20
2022-08-11T15:30:35.155Z,1.20
2022-08-11T15:33:26.647Z,1.38
2022-08-11T15:36:18.355Z,1.17
2022-08-11T15:38:55.342Z,1.10
2022-08-11T15:41:58.604Z,1.17
2022-08-11T15:45:03.563Z,1.13
2022-08-11T15:47:39.275Z,1.17
2022-08-11T15:50:16.004Z,1.50
2022-08-11T15:52:54.100Z,1.25
2022-08-11T15:55:25.494Z,1.40
2022-08-11T15:58:15.387Z,1.58
2022-08-11T16:01:08.886Z,1.27
2022-08-11T16:04:07.435Z,1.25
2022-08-11T16:06:51.416Z,1.20
2022-08-11T16:09:26.437Z,1.40
2022-08-11T16:12:04.723Z,1.30
2022-08-11T16:14:54.411Z,1.10
2022-08-11T16:17:27.192Z,1.33
2022-08-11T16:19:58.356Z,1.48
2022-08-11T16:22:36.543Z,1.23
2022-08-11T16:27:06.893Z,1.30
2022-08-11T16:28:03.912Z,1.20
2022-08-11T16:30:33.172Z,1.60
2022-08-11T16:33:48.792Z,1.58
2022-08-11T16:36:13.476Z,1.10
2022-08-11T16:38:44.074Z,1.38
2022-08-11T16:41:37.180Z,1.27
2022-08-11T16:44:32.810Z,1.33
2022-08-11T16:47:09.098Z,1.30
2022-08-11T16:49:43.611Z,1.55
2022-08-11T16:52:23.895Z,1.25
2022-08-11T16:54:53.433Z,1.40
2022-08-11T16:57:42.780Z,1.27
2022-08-11T17:00:16.217Z,1.50
2022-08-11T17:03:06.099Z,1.60
2022-08-11T17:05:55.858Z,1.55
2022-08-11T17:08:57.188Z,1.60
2022-08-11T17:11:46.533Z,1.50
2022-08-11T17:14:36.114Z,1.70
2022-08-11T17:17:12.393Z,1.60
2022-08-11T17:20:42.469Z,1.35
2022-08-11T17:22:54.478Z,1.83
2022-08-11T17:25:25.875Z,1.45
2022-08-11T17:27:56.794Z,1.55
2022-08-11T17:30:48.789Z,1.52
2022-08-11T17:33:37.965Z,1.60
2022-08-11T17:36:08.399Z,1.50
2022-08-11T17:38:37.705Z,2.00
2022-08-11T17:41:26.388Z,1.60
2022-08-11T17:44:13.622Z,1.23
2022-08-11T17:47:05.665Z,1.77
2022-08-11T17:49:39.928Z,1.70
2022-08-11T17:52:31.895Z,1.80
2022-08-11T17:55:51.127Z,1.63
2022-08-11T17:58:32.321Z,1.35
2022-08-11T18:01:09.045Z,1.35
2022-08-11T18:03:41.041Z,1.65
2022-08-11T18:06:14.147Z,1.40
2022-08-11T18:09:05.299Z,1.30
2022-08-11T18:12:11.240Z,1.50
2022-08-11T18:15:03.024Z,1.35
2022-08-11T18:17:49.266Z,1.73
2022-08-11T18:20:36.896Z,1.60
2022-08-11T18:23:41.793Z,1.52
2022-08-11T18:26:36.786Z,1.60
2022-08-11T18:29:26.238Z,1.38
2022-08-11T18:32:22.189Z,1.40
2022-08-11T18:35:14.036Z,1.70
2022-08-11T18:38:04.879Z,1.27
2022-08-11T18:40:54.505Z,1.50
2022-08-11T18:43:44.685Z,1.50
2022-08-11T18:46:32.475Z,1.42
2022-08-11T18:50:02.353Z,1.42
2022-08-11T18:52:35.965Z,1.92
2022-08-11T18:55:24.912Z,1.40
2022-08-11T18:58:13.435Z,1.70
2022-08-11T19:01:01.912Z,1.92
2022-08-11T19:03:51.160Z,1.75
2022-08-11T19:06:41.234Z,1.50
2022-08-11T19:09:31.223Z,1.67
2022-08-11T19:12:19.099Z,1.75
2022-08-11T19:15:09.609Z,1.70
2022-08-11T19:18:01.597Z,1.75
2022-08-11T19:20:50.254Z,1.35
2022-08-11T19:23:43.432Z,1.58
2022-08-11T19:26:30.340Z,2.00
2022-08-11T19:30:07.417Z,1.80
2022-08-11T19:32:26.647Z,1.65
2022-08-11T19:35:15.217Z,1.80
2022-08-11T19:38:05.464Z,1.83
2022-08-11T19:40:52.933Z,2.25
2022-08-11T19:43:39.321Z,1.52
2022-08-11T19:46:27.224Z,1.85
2022-08-11T19:49:15.881Z,1.70
2022-08-11T19:52:04.636Z,1.70
2022-08-11T19:54:54.453Z,1.60
2022-08-11T19:57:43.635Z,1.92
2022-08-11T20:00:33.853Z,1.90
2022-08-11T20:03:22.200Z,1.60
2022-08-11T20:06:11.524Z,1.48
2022-08-11T20:09:00.921Z,1.90
2022-08-11T20:11:50.374Z,1.73
2022-08-11T20:14:38.883Z,1.88
2022-08-11T20:17:26.472Z,1.70
2022-08-11T20:20:14.018Z,1.92
2022-08-11T20:23:02.189Z,1.90
2022-08-11T20:25:48.720Z,1.67
2022-08-11T20:28:38.111Z,1.52
2022-08-11T20:31:26.430Z,1.67
2022-08-11T20:34:14.343Z,1.73
2022-08-11T20:37:03.236Z,1.52
2022-08-11T20:39:53.228Z,1.50
2022-08-11T20:42:41.642Z,1.65
2022-08-11T20:45:29.332Z,1.60
2022-08-11T20:48:17.444Z,1.70
2022-08-11T20:51:05.988Z,1.70
2022-08-11T20:53:54.562Z,1.70
2022-08-11T20:56:44.359Z,1.65
2022-08-11T20:59:33.309Z,1.70
2022-08-11T21:02:41.203Z,1.55
2022-08-11T21:06:10.071Z,1.48
2022-08-11T21:08:41.739Z,1.88
2022-08-11T21:11:29.279Z,1.88
2022-08-11T21:14:19.518Z,1.80
2022-08-11T21:17:27.113Z,1.63
2022-08-11T21:20:21.212Z,1.92
2022-08-11T21:23:10.392Z,1.85
2022-08-11T21:26:04.810Z,1.73
2022-08-11T21:28:53.648Z,2.00
2022-08-11T21:31:44.705Z,1.95
2022-08-11T21:34:32.941Z,2.10
2022-08-11T21:37:20.900Z,1.88
2022-08-11T21:40:14.916Z,2.20
2022-08-11T21:43:07.234Z,2.10
2022-08-11T21:45:55.692Z,1.90
2022-08-11T21:48:45.920Z,2.40
2022-08-11T21:51:32.278Z,1.73
2022-08-11T21:54:20.775Z,1.60
2022-08-11T21:57:07.021Z,2.00
2022-08-11T22:00:11.111Z,1.90
2022-08-11T22:02:58.424Z,2.03
2022-08-11T22:05:47.584Z,2.10
2022-08-11T22:08:33.928Z,1.80
2022-08-11T22:11:32.024Z,2.13
2022-08-11T22:14:19.423Z,1.88
2022-08-11T22:17:06.151Z,2.47
2022-08-11T22:19:54.594Z,2.38
2022-08-11T22:22:52.047Z,2.20
2022-08-11T22:25:46.471Z,1.98
2022-08-11T22:28:38.906Z,2.15
2022-08-11T22:31:26.900Z,1.92
2022-08-11T22:34:13.107Z,1.98
2022-08-11T22:36:59.950Z,2.20
2022-08-11T22:40:00.063Z,1.88
2022-08-11T22:42:49.035Z,2.10
2022-08-11T22:45:36.336Z,2.00
2022-08-11T22:48:23.759Z,2.03
2022-08-11T22:51:11.356Z,1.83
2022-08-11T22:53:59.245Z,1.85
2022-08-11T22:56:48.134Z,1.77
2022-08-11T22:59:36.312Z,1.73
2022-08-11T23:02:23.977Z,1.77
2022-08-11T23:05:10.467Z,1.90
2022-08-11T23:07:58.311Z,1.80
2022-08-11T23:10:46.003Z,2.10
2022-08-11T23:13:34.840Z,1.83
2022-08-11T23:16:21.344Z,1.80
2022-08-11T23:19:08.997Z,1.90
2022-08-11T23:21:57.110Z,1.88
2022-08-11T23:24:44.644Z,1.83
2022-08-11T23:27:32.802Z,2.10
2022-08-11T23:30:20.759Z,2.05
2022-08-11T23:33:12.882Z,2.00
2022-08-11T23:36:05.393Z,1.88
2022-08-11T23:38:52.671Z,2.08
2022-08-11T23:41:39.394Z,1.85
2022-08-11T23:44:27.523Z,2.03
2022-08-11T23:47:17.031Z,1.70
2022-08-11T23:50:05.820Z,2.13
2022-08-11T23:52:53.218Z,2.08
2022-08-11T23:55:40.552Z,1.90
2022-08-11T23:58:26.872Z,2.22
